createdAt,value
2018-08-25T00:00:33.401Z,57.46
2018-08-25T00:03:01.813Z,56.61
2018-08-25T00:05:30.244Z,56.63
2018-08-25T00:07:58.702Z,57.20
2018-08-25T00:10:27.182Z,56.25
2018-08-25T00:12:55.596Z,56.36
2018-08-25T00:15:24.108Z,57.96
2018-08-25T00:17:52.563Z,57.69
2018-08-25T00:20:20.984Z,57.76
2018-08-25T00:22:49.458Z,57.50
2018-08-25T00:25:17.941Z,57.28
2018-08-25T00:27:46.407Z,58.02
2018-08-25T00:30:20.081Z,58.59
2018-08-25T00:32:48.577Z,58.22
2018-08-25T00:35:17.035Z,60.05
2018-08-25T00:37:45.538Z,59.61
2018-08-25T00:40:14.208Z,59.64
2018-08-25T00:42:42.695Z,59.83
2018-08-25T00:45:11.304Z,59.61
2018-08-25T00:47:39.808Z,59.00
2018-08-25T00:50:08.298Z,59.81
2018-08-25T00:52:36.853Z,59.50
2018-08-25T00:55:05.479Z,58.14
2018-08-25T00:57:33.989Z,59.73
2018-08-25T01:00:02.405Z,58.62
2018-08-25T01:02:30.873Z,59.07
2018-08-25T01:04:59.275Z,59.27
2018-08-25T01:07:27.752Z,60.01
2018-08-25T01:09:56.224Z,59.45
2018-08-25T01:12:24.674Z,59.86
2018-08-25T01:14:53.168Z,60.56
2018-08-25T01:17:21.609Z,59.33
2018-08-25T01:19:50.122Z,60.81
2018-08-25T01:22:18.628Z,60.29
2018-08-25T01:24:47.141Z,60.42
2018-08-25T01:27:15.664Z,60.36
2018-08-25T01:29:44.102Z,59.02
2018-08-25T01:32:12.566Z,59.40
2018-08-25T01:34:40.988Z,60.56
2018-08-25T01:37:09.419Z,61.11
2018-08-25T01:39:37.896Z,60.04
2018-08-25T01:42:06.601Z,59.88
2018-08-25T01:44:35.089Z,60.26
2018-08-25T01:47:03.638Z,60.11
2018-08-25T01:49:32.178Z,60.54
2018-08-25T01:52:00.739Z,60.43
2018-08-25T01:54:29.194Z,60.94
2018-08-25T01:56:57.642Z,61.56
2018-08-25T01:59:26.157Z,61.30
2018-08-25T02:01:54.552Z,61.23
2018-08-25T02:04:23.015Z,59.82
2018-08-25T02:06:51.460Z,60.89
2018-08-25T02:09:19.921Z,60.61
2018-08-25T02:11:48.351Z,60.56
2018-08-25T02:14:16.911Z,62.10
2018-08-25T02:16:45.378Z,60.86
2018-08-25T02:19:13.809Z,59.60
2018-08-25T02:21:42.312Z,61.10
2018-08-25T02:24:10.808Z,61.17
2018-08-25T02:26:39.304Z,62.50
2018-08-25T02:29:07.787Z,61.76
2018-08-25T02:31:36.381Z,61.68
2018-08-25T02:34:04.885Z,62.41
2018-08-25T02:36:33.312Z,63.01
2018-08-25T02:39:01.770Z,64.19
2018-08-25T02:41:30.289Z,62.96
2018-08-25T02:43:58.846Z,62.48
2018-08-25T02:46:27.258Z,62.41
2018-08-25T02:48:55.665Z,61.33
2018-08-25T02:51:24.127Z,60.67
2018-08-25T02:53:52.557Z,61.24
2018-08-25T02:56:20.984Z,61.75
2018-08-25T02:58:49.395Z,63.53
2018-08-25T03:01:17.818Z,66.08
2018-08-25T03:03:46.215Z,66.62
2018-08-25T03:06:14.680Z,70.91
2018-08-25T03:08:43.081Z,72.17
2018-08-25T03:11:11.490Z,72.00
2018-08-25T03:13:39.896Z,74.91
2018-08-25T03:16:08.308Z,76.50
2018-08-25T03:18:36.846Z,78.09
2018-08-25T03:21:05.378Z,78.88
2018-08-25T03:23:33.823Z,78.90
2018-08-25T03:26:02.213Z,79.18
2018-08-25T03:28:30.669Z,79.46
2018-08-25T03:30:59.923Z,80.19
2018-08-25T03:33:28.352Z,81.10
2018-08-25T03:35:56.788Z,81.97
2018-08-25T03:38:25.204Z,82.41
2018-08-25T03:40:53.590Z,81.62
2018-08-25T03:43:22.721Z,81.68
2018-08-25T03:45:51.107Z,82.11
2018-08-25T03:48:19.825Z,82.66
2018-08-25T03:50:48.291Z,83.25
2018-08-25T03:53:16.675Z,83.73
2018-08-25T03:55:45.120Z,83.53
2018-08-25T03:58:13.518Z,83.95
2018-08-25T04:00:41.968Z,83.98
2018-08-25T04:03:10.441Z,82.87
2018-08-25T04:05:38.861Z,84.77
2018-08-25T04:08:07.231Z,83.62
2018-08-25T04:10:35.627Z,83.48
2018-08-25T04:13:04.522Z,83.81
2018-08-25T04:15:33.003Z,83.09
2018-08-25T04:18:01.398Z,83.66
2018-08-25T04:20:29.802Z,84.51
2018-08-25T04:22:58.201Z,84.63
2018-08-25T04:25:26.601Z,84.63
2018-08-25T04:27:54.996Z,85.31
2018-08-25T04:30:23.371Z,85.36
2018-08-25T04:32:51.785Z,84.09
2018-08-25T04:35:20.168Z,84.93
2018-08-25T04:37:48.645Z,84.66
2018-08-25T04:40:17.069Z,85.49
2018-08-25T04:42:45.479Z,84.91
2018-08-25T04:45:13.867Z,85.44
2018-08-25T04:47:42.237Z,85.16
2018-08-25T04:50:10.734Z,85.32
2018-08-25T04:52:39.164Z,84.30
2018-08-25T04:55:07.560Z,85.01
2018-08-25T04:57:35.954Z,85.02
2018-08-25T05:00:04.932Z,84.89
2018-08-25T05:02:33.362Z,83.49
2018-08-25T05:05:01.784Z,85.95
2018-08-25T05:07:30.264Z,85.01
2018-08-25T05:09:58.839Z,84.86
2018-08-25T05:12:27.269Z,85.85
2018-08-25T05:14:55.672Z,85.33
2018-08-25T05:17:24.141Z,85.45
2018-08-25T05:19:52.563Z,85.49
2018-08-25T05:22:21.005Z,85.48
2018-08-25T05:24:49.637Z,85.79
2018-08-25T05:27:18.042Z,86.22
2018-08-25T05:29:46.470Z,86.74
2018-08-25T05:32:14.982Z,85.62
2018-08-25T05:34:43.399Z,85.67
2018-08-25T05:37:11.823Z,85.33
2018-08-25T05:39:40.188Z,86.49
2018-08-25T05:42:08.651Z,85.33
2018-08-25T05:44:37.101Z,85.15
2018-08-25T05:47:05.640Z,84.43
2018-08-25T05:49:34.194Z,85.35
2018-08-25T05:52:02.639Z,84.47
2018-08-25T05:54:31.046Z,85.31
2018-08-25T05:56:59.457Z,84.22
2018-08-25T05:59:27.890Z,85.53
2018-08-25T06:01:56.332Z,84.63
2018-08-25T06:04:24.745Z,84.00
2018-08-25T06:06:53.208Z,85.53
2018-08-25T06:09:21.634Z,84.58
2018-08-25T06:11:50.048Z,84.66
2018-08-25T06:14:18.508Z,85.82
2018-08-25T06:16:46.875Z,84.75
2018-08-25T06:19:15.325Z,84.21
2018-08-25T06:21:43.690Z,84.67
2018-08-25T06:24:12.242Z,84.12
2018-08-25T06:26:40.701Z,84.50
2018-08-25T06:29:09.102Z,84.40
2018-08-25T06:31:37.456Z,83.56
2018-08-25T06:34:07.098Z,84.69
2018-08-25T06:36:35.573Z,83.66
2018-08-25T06:39:06.339Z,84.03
2018-08-25T06:41:34.765Z,83.85
2018-08-25T06:44:03.244Z,83.06
2018-08-25T06:46:31.699Z,84.41
2018-08-25T06:49:00.114Z,83.59
2018-08-25T06:51:28.540Z,84.55
2018-08-25T06:53:56.954Z,83.32
2018-08-25T06:56:25.382Z,82.76
2018-08-25T06:58:53.832Z,82.97
2018-08-25T07:01:22.285Z,82.83
2018-08-25T07:03:50.844Z,82.91
2018-08-25T07:06:19.322Z,82.13
2018-08-25T07:08:47.703Z,82.89
2018-08-25T07:11:16.162Z,81.51
2018-08-25T07:13:44.598Z,82.30
2018-08-25T07:16:12.971Z,81.84
2018-08-25T07:18:41.428Z,80.38
2018-08-25T07:21:09.855Z,81.69
2018-08-25T07:23:38.338Z,81.83
2018-08-25T07:26:06.924Z,80.60
2018-08-25T07:28:35.387Z,80.21
2018-08-25T07:31:03.825Z,80.59
2018-08-25T07:33:32.462Z,81.61
2018-08-25T07:36:00.959Z,80.42
2018-08-25T07:38:29.391Z,80.41
2018-08-25T07:40:57.853Z,79.93
2018-08-25T07:46:08.344Z,80.23
2018-08-25T07:48:36.857Z,79.72
2018-08-25T07:51:05.380Z,78.89
2018-08-25T07:53:33.891Z,79.46
2018-08-25T07:56:02.310Z,78.36
2018-08-25T07:58:30.797Z,77.91
2018-08-25T08:00:59.192Z,76.67
2018-08-25T08:03:27.651Z,77.02
2018-08-25T08:05:56.103Z,76.90
2018-08-25T08:08:24.605Z,76.84
2018-08-25T08:10:53.111Z,75.85
2018-08-25T08:13:21.542Z,75.32
2018-08-25T08:15:50.036Z,75.19
2018-08-25T08:18:18.510Z,74.92
2018-08-25T08:20:47.060Z,74.33
2018-08-25T08:23:15.567Z,74.55
2018-08-25T08:25:44.052Z,74.33
2018-08-25T08:28:12.508Z,74.43
2018-08-25T08:30:41.024Z,73.58
2018-08-25T08:33:09.528Z,72.53
2018-08-25T08:35:38.182Z,74.38
2018-08-25T08:38:06.643Z,73.91
2018-08-25T08:40:35.449Z,74.95
2018-08-25T08:43:03.892Z,73.18
2018-08-25T08:45:32.500Z,72.78
2018-08-25T08:48:00.890Z,71.71
2018-08-25T08:50:29.386Z,71.95
2018-08-25T08:52:57.761Z,72.05
2018-08-25T08:55:26.271Z,71.25
2018-08-25T08:57:54.700Z,71.67
2018-08-25T09:00:23.148Z,69.68
2018-08-25T09:02:51.652Z,69.30
2018-08-25T09:05:20.093Z,69.30
2018-08-25T09:07:48.561Z,67.80
2018-08-25T09:10:17.053Z,68.55
2018-08-25T09:12:45.549Z,67.04
2018-08-25T09:15:13.999Z,68.69
2018-08-25T09:17:42.504Z,64.62
2018-08-25T09:20:11.535Z,65.68
2018-08-25T09:22:40.025Z,65.41
2018-08-25T09:25:08.462Z,64.58
2018-08-25T09:27:36.905Z,66.68
2018-08-25T09:30:05.503Z,65.08
2018-08-25T09:32:33.963Z,65.02
2018-08-25T09:35:02.393Z,63.56
2018-08-25T09:37:30.872Z,63.39
2018-08-25T09:39:59.256Z,63.90
2018-08-25T09:42:27.703Z,63.93
2018-08-25T09:44:56.138Z,64.68
2018-08-25T09:47:24.549Z,63.72
2018-08-25T09:49:53.311Z,65.49
2018-08-25T09:52:21.881Z,62.98
2018-08-25T09:54:50.333Z,63.99
2018-08-25T09:57:18.865Z,63.31
2018-08-25T09:59:47.489Z,62.75
2018-08-25T10:02:15.879Z,64.03
2018-08-25T10:04:44.334Z,62.33
2018-08-25T10:07:12.779Z,63.76
2018-08-25T10:09:41.172Z,62.46
2018-08-25T10:12:09.622Z,62.00
2018-08-25T10:14:38.055Z,62.52
2018-08-25T10:17:06.803Z,61.97
2018-08-25T10:19:35.333Z,61.30
2018-08-25T10:22:03.816Z,61.34
2018-08-25T10:24:32.256Z,62.61
2018-08-25T10:27:00.705Z,60.69
2018-08-25T10:29:29.162Z,61.12
2018-08-25T10:31:57.624Z,61.12
2018-08-25T10:34:26.075Z,60.64
2018-08-25T10:36:54.593Z,59.45
2018-08-25T10:39:23.046Z,61.74
2018-08-25T10:41:51.614Z,59.63
2018-08-25T10:44:19.903Z,61.38
2018-08-25T10:46:48.297Z,61.09
2018-08-25T10:49:16.713Z,58.92
2018-08-25T10:51:45.235Z,59.70
2018-08-25T10:54:13.762Z,59.78
2018-08-25T10:56:42.226Z,58.77
2018-08-25T10:59:10.687Z,58.96
2018-08-25T11:01:39.145Z,58.23
2018-08-25T11:04:07.612Z,59.54
2018-08-25T11:06:36.008Z,60.40
2018-08-25T11:09:07.151Z,59.97
2018-08-25T11:11:35.660Z,59.90
2018-08-25T11:14:04.161Z,58.25
2018-08-25T11:16:32.647Z,58.01
2018-08-25T11:19:01.004Z,57.33
2018-08-25T11:21:29.468Z,57.30
2018-08-25T11:23:57.923Z,56.87
2018-08-25T11:26:26.469Z,57.52
2018-08-25T11:28:54.994Z,58.73
2018-08-25T11:31:23.507Z,59.27
2018-08-25T11:33:51.938Z,59.11
2018-08-25T11:36:20.444Z,60.46
2018-08-25T11:38:49.085Z,57.78
2018-08-25T11:41:17.529Z,58.57
2018-08-25T11:43:45.975Z,59.33
2018-08-25T11:46:14.437Z,58.01
2018-08-25T11:48:42.911Z,57.72
2018-08-25T11:51:11.292Z,58.52
2018-08-25T11:53:39.729Z,59.87
2018-08-25T11:56:08.141Z,60.35
2018-08-25T11:58:36.622Z,61.38
2018-08-25T12:01:05.108Z,61.22
2018-08-25T12:03:33.662Z,59.69
2018-08-25T12:06:01.988Z,60.35
2018-08-25T12:08:30.491Z,58.67
2018-08-25T12:10:59.011Z,59.14
2018-08-25T12:13:27.425Z,57.81
2018-08-25T12:15:55.911Z,58.30
2018-08-25T12:18:24.347Z,57.40
2018-08-25T12:20:52.788Z,57.75
2018-08-25T12:23:21.234Z,57.85
2018-08-25T12:25:49.771Z,57.23
2018-08-25T12:28:18.393Z,58.52
2018-08-25T12:30:46.877Z,59.04
2018-08-25T12:33:15.361Z,59.25
2018-08-25T12:35:43.837Z,58.94
2018-08-25T12:38:12.358Z,58.66
2018-08-25T12:40:40.765Z,58.47
2018-08-25T12:43:09.223Z,58.79
2018-08-25T12:45:37.697Z,57.75
2018-08-25T12:48:06.165Z,57.00
2018-08-25T12:50:34.616Z,56.74
2018-08-25T12:53:03.749Z,56.22
2018-08-25T12:55:32.204Z,57.16
2018-08-25T12:58:00.696Z,57.87
2018-08-25T13:00:29.092Z,58.96
2018-08-25T13:02:57.630Z,58.39
2018-08-25T13:05:26.133Z,58.96
2018-08-25T13:07:54.599Z,58.50
2018-08-25T13:10:23.092Z,59.08
2018-08-25T13:12:51.562Z,58.60
2018-08-25T13:15:20.015Z,57.48
2018-08-25T13:17:48.520Z,57.35
2018-08-25T13:20:16.987Z,58.11
2018-08-25T13:22:45.464Z,56.68
2018-08-25T13:25:13.885Z,53.90
2018-08-25T13:27:42.339Z,54.00
2018-08-25T13:30:10.837Z,56.76
2018-08-25T13:32:39.315Z,57.32
2018-08-25T13:35:07.785Z,58.17
2018-08-25T13:37:36.250Z,59.64
2018-08-25T13:40:04.910Z,56.55
2018-08-25T13:42:33.352Z,53.43
2018-08-25T13:45:02.165Z,52.92
2018-08-25T13:47:30.787Z,51.09
2018-08-25T13:49:59.255Z,51.56
2018-08-25T13:52:27.996Z,53.67
2018-08-25T13:54:56.404Z,53.47
2018-08-25T13:57:24.943Z,53.88
2018-08-25T13:59:53.366Z,54.75
2018-08-25T14:02:22.042Z,55.66
2018-08-25T14:04:50.443Z,55.25
2018-08-25T14:07:18.887Z,56.32
2018-08-25T14:09:47.588Z,56.33
2018-08-25T14:12:16.014Z,56.67
2018-08-25T14:14:44.524Z,56.81
2018-08-25T14:17:12.932Z,56.45
2018-08-25T14:19:41.382Z,56.28
2018-08-25T14:22:10.914Z,56.70
2018-08-25T14:24:39.985Z,55.50
2018-08-25T14:27:08.396Z,54.12
2018-08-25T14:29:36.815Z,54.00
2018-08-25T14:32:05.227Z,53.79
2018-08-25T14:34:33.769Z,54.10
2018-08-25T14:37:02.140Z,54.53
2018-08-25T14:39:31.304Z,55.52
2018-08-25T14:41:59.731Z,54.69
2018-08-25T14:44:28.132Z,55.16
2018-08-25T14:46:56.980Z,55.37
2018-08-25T14:49:25.424Z,55.67
2018-08-25T14:51:53.779Z,56.46
2018-08-25T14:54:22.954Z,58.41
2018-08-25T14:56:51.382Z,56.96
2018-08-25T14:59:19.805Z,56.86
2018-08-25T15:01:48.216Z,58.50
2018-08-25T15:04:16.682Z,57.25
2018-08-25T15:06:45.127Z,58.49
2018-08-25T15:09:14.531Z,61.13
2018-08-25T15:11:44.705Z,61.62
2018-08-25T15:14:13.148Z,64.40
2018-08-25T15:16:41.649Z,66.57
2018-08-25T15:19:10.117Z,68.53
2018-08-25T15:21:38.561Z,68.78
2018-08-25T15:24:07.116Z,69.50
2018-08-25T15:26:35.601Z,69.19
2018-08-25T15:29:04.096Z,70.18
2018-08-25T15:31:32.545Z,69.18
2018-08-25T15:34:00.955Z,67.34
2018-08-25T15:36:29.403Z,65.44
2018-08-25T15:38:58.420Z,63.81
2018-08-25T15:41:26.870Z,63.97
2018-08-25T15:43:55.363Z,63.35
2018-08-25T15:46:23.796Z,62.61
2018-08-25T15:48:52.272Z,62.22
2018-08-25T15:51:23.399Z,61.82
2018-08-25T15:53:51.839Z,61.94
2018-08-25T15:56:20.264Z,62.18
2018-08-25T15:58:48.713Z,62.34
2018-08-25T16:01:17.173Z,63.00
2018-08-25T16:03:45.621Z,61.27
2018-08-25T16:06:14.093Z,60.80
2018-08-25T16:08:42.734Z,58.21
2018-08-25T16:11:11.143Z,57.81
2018-08-25T16:13:39.537Z,57.68
2018-08-25T16:16:07.993Z,55.70
2018-08-25T16:18:36.480Z,54.58
2018-08-25T16:21:04.997Z,54.29
2018-08-25T16:23:34.055Z,55.54
2018-08-25T16:26:02.512Z,56.79
2018-08-25T16:28:30.949Z,56.63
2018-08-25T16:30:59.367Z,56.45
2018-08-25T16:33:27.839Z,56.70
2018-08-25T16:35:56.229Z,55.80
2018-08-25T16:38:24.706Z,56.70
2018-08-25T16:40:53.118Z,56.39
2018-08-25T16:43:21.576Z,56.28
2018-08-25T16:45:50.037Z,56.37
2018-08-25T16:48:18.468Z,54.68
2018-08-25T16:50:46.969Z,54.34
2018-08-25T16:53:15.434Z,55.69
2018-08-25T16:55:44.479Z,54.81
2018-08-25T16:58:13.151Z,53.85
2018-08-25T17:00:42.209Z,54.78
2018-08-25T17:03:10.621Z,54.89
2018-08-25T17:05:39.066Z,55.94
2018-08-25T17:08:07.490Z,55.64
2018-08-25T17:10:35.969Z,55.57
2018-08-25T17:13:04.428Z,54.77
2018-08-25T17:15:32.845Z,56.25
2018-08-25T17:18:01.260Z,55.42
2018-08-25T17:20:29.684Z,56.77
2018-08-25T17:22:58.114Z,56.38
2018-08-25T17:25:26.533Z,56.77
2018-08-25T17:27:54.969Z,56.92
2018-08-25T17:30:23.435Z,57.36
2018-08-25T17:32:51.832Z,58.20
2018-08-25T17:35:20.260Z,57.91
2018-08-25T17:37:48.757Z,57.05
2018-08-25T17:40:17.387Z,57.37
2018-08-25T17:42:45.801Z,57.90
2018-08-25T17:45:15.199Z,58.49
2018-08-25T17:47:43.532Z,58.11
2018-08-25T17:50:12.022Z,59.82
2018-08-25T17:52:40.488Z,62.80
2018-08-25T17:55:08.934Z,65.47
2018-08-25T17:57:37.635Z,65.55
2018-08-25T18:00:06.665Z,65.44
2018-08-25T18:02:35.378Z,66.91
2018-08-25T18:05:03.938Z,68.15
2018-08-25T18:07:32.548Z,68.81
2018-08-25T18:10:01.288Z,69.19
2018-08-25T18:12:30.017Z,72.05
2018-08-25T18:14:59.262Z,73.53
2018-08-25T18:17:27.998Z,72.41
2018-08-25T18:19:56.738Z,71.56
2018-08-25T18:22:25.388Z,72.06
2018-08-25T18:24:54.101Z,72.05
2018-08-25T18:27:22.854Z,75.72
2018-08-25T18:29:51.421Z,76.37
2018-08-25T18:32:19.985Z,76.26
2018-08-25T18:34:48.952Z,75.64
2018-08-25T18:37:17.600Z,75.39
2018-08-25T18:39:46.352Z,74.97
2018-08-25T18:42:15.521Z,77.18
2018-08-25T18:44:44.020Z,76.77
2018-08-25T18:47:12.805Z,76.58
2018-08-25T18:49:41.632Z,77.36
2018-08-25T18:52:10.163Z,77.21
2018-08-25T18:54:38.671Z,76.93
2018-08-25T18:57:07.348Z,77.64
2018-08-25T18:59:35.865Z,78.27
2018-08-25T19:02:04.418Z,78.17
2018-08-25T19:04:33.036Z,78.80
2018-08-25T19:07:01.792Z,78.73
2018-08-25T19:09:30.303Z,79.27
2018-08-25T19:11:58.876Z,79.33
2018-08-25T19:14:27.443Z,80.01
2018-08-25T19:16:56.186Z,79.42
2018-08-25T19:19:24.972Z,79.07
2018-08-25T19:21:53.752Z,79.32
2018-08-25T19:24:22.673Z,79.06
2018-08-25T19:26:51.542Z,79.90
2018-08-25T19:29:20.243Z,80.40
2018-08-25T19:31:49.132Z,79.40
2018-08-25T19:34:17.929Z,78.24
2018-08-25T19:36:46.747Z,78.75
2018-08-25T19:39:15.704Z,78.29
2018-08-25T19:41:44.442Z,79.59
2018-08-25T19:44:13.179Z,79.07
2018-08-25T19:46:41.987Z,78.65
2018-08-25T19:49:10.802Z,80.00
2018-08-25T19:51:39.531Z,80.30
2018-08-25T19:54:08.282Z,80.93
2018-08-25T19:56:37.724Z,80.29
2018-08-25T19:59:06.496Z,80.36
2018-08-25T20:01:34.978Z,79.91
2018-08-25T20:04:03.772Z,80.83
2018-08-25T20:06:32.233Z,81.44
2018-08-25T20:09:00.968Z,81.67
2018-08-25T20:11:29.478Z,81.16
2018-08-25T20:13:58.195Z,81.14
2018-08-25T20:16:26.974Z,81.86
2018-08-25T20:18:55.433Z,82.45
2018-08-25T20:21:24.124Z,82.27
2018-08-25T20:23:52.634Z,81.93
2018-08-25T20:26:21.330Z,82.32
2018-08-25T20:28:50.123Z,81.39
2018-08-25T20:31:18.645Z,82.49
2018-08-25T20:33:47.391Z,81.86
2018-08-25T20:36:16.452Z,81.82
2018-08-25T20:38:44.990Z,82.03
2018-08-25T20:41:13.630Z,81.82
2018-08-25T20:43:42.105Z,82.30
2018-08-25T20:46:10.586Z,82.40
2018-08-25T20:48:39.047Z,81.96
2018-08-25T20:51:07.538Z,82.09
2018-08-25T20:53:36.021Z,81.19
2018-08-25T20:56:04.453Z,81.29
2018-08-25T20:58:32.910Z,82.69
2018-08-25T21:01:01.357Z,81.68
2018-08-25T21:03:30.619Z,81.96
2018-08-25T21:05:59.063Z,82.17
2018-08-25T21:08:27.953Z,81.90
2018-08-25T21:10:56.432Z,82.41
2018-08-25T21:13:24.830Z,82.10
2018-08-25T21:15:53.293Z,82.49
2018-08-25T21:18:21.678Z,82.24
2018-08-25T21:20:50.206Z,82.03
2018-08-25T21:23:18.828Z,82.66
2018-08-25T21:25:47.281Z,81.91
2018-08-25T21:28:15.704Z,82.56
2018-08-25T21:30:44.201Z,82.38
2018-08-25T21:33:12.684Z,82.38
2018-08-25T21:35:41.164Z,83.05
2018-08-25T21:38:09.608Z,83.08
2018-08-25T21:40:37.981Z,82.47
2018-08-25T21:43:06.486Z,82.54
2018-08-25T21:45:34.960Z,82.10
2018-08-25T21:48:03.452Z,81.94
2018-08-25T21:50:31.929Z,81.64
2018-08-25T21:53:00.365Z,82.60
2018-08-25T21:55:28.800Z,82.55
2018-08-25T21:57:57.324Z,81.16
2018-08-25T22:00:25.838Z,81.79
2018-08-25T22:02:54.317Z,82.12
2018-08-25T22:05:22.783Z,82.41
2018-08-25T22:07:51.221Z,82.85
2018-08-25T22:10:19.679Z,83.10
2018-08-25T22:12:48.120Z,82.87
2018-08-25T22:15:16.569Z,82.76
2018-08-25T22:17:44.943Z,83.39
2018-08-25T22:20:13.361Z,82.89
2018-08-25T22:22:41.785Z,83.27
2018-08-25T22:25:10.214Z,83.12
2018-08-25T22:27:38.644Z,83.48
2018-08-25T22:30:07.150Z,82.70
2018-08-25T22:32:35.586Z,82.88
2018-08-25T22:35:04.237Z,83.06
2018-08-25T22:37:32.682Z,83.08
2018-08-25T22:40:01.131Z,83.25
2018-08-25T22:42:29.623Z,82.50
2018-08-25T22:44:58.105Z,81.93
2018-08-25T22:47:26.561Z,82.84
2018-08-25T22:49:55.013Z,81.80
2018-08-25T22:52:58.193Z,81.95
2018-08-25T22:55:26.595Z,82.09
2018-08-25T22:57:55.296Z,82.66
2018-08-25T23:00:23.700Z,82.03
2018-08-25T23:02:52.132Z,83.02
2018-08-25T23:05:20.803Z,83.04
2018-08-25T23:07:49.258Z,82.80
2018-08-25T23:10:17.719Z,82.74
2018-08-25T23:12:46.175Z,82.56
2018-08-25T23:15:14.645Z,83.47
2018-08-25T23:17:43.135Z,82.45
2018-08-25T23:20:11.613Z,82.37
2018-08-25T23:22:40.103Z,82.54
2018-08-25T23:25:08.525Z,83.03
2018-08-25T23:27:36.962Z,83.61
2018-08-25T23:30:05.475Z,82.11
2018-08-25T23:32:33.937Z,82.49
2018-08-25T23:35:02.388Z,82.85
2018-08-25T23:37:30.844Z,83.60
2018-08-25T23:39:59.292Z,83.49
2018-08-25T23:42:27.760Z,82.55
2018-08-25T23:44:56.153Z,82.79
2018-08-25T23:47:24.606Z,83.42
2018-08-25T23:49:53.028Z,83.15
2018-08-25T23:52:21.529Z,83.26
2018-08-25T23:54:49.924Z,83.29
2018-08-25T23:57:18.349Z,82.87
2018-08-25T23:59:46.764Z,82.94
